Sycamore, Texas
Current Conditions -  °F | °C
As of 8:55 AM on Friday 19 Dec 2014 (Local Time) from KDRI Reporting Station
Moderate Rain Moderate Rain  
Wind Chill: 53°   Ceiling: 400
Heat Index: 53°   Visibility: 5mi
Dew Point: 51°   Wind: 6mph
Humidity: 95%   Direction: 60°ENE
Pressure: 30.12"   Gusts: NA
Location:  31.0001°N, 93.6355°W
Report Text: KDRI 191455Z AUTO 06005KT 5SM RA BKN004 BKN009 OVC020 12/11 A3012 RMK AO2 P0010 60019 T01150108
Loading
Personal Weather Stations






























Interactive Weather Map New forecast layout! Learn more

10-Day Weather Forecast

Advertisements
Track Severe Weather on mobile